Tuesday, December 18, 2018, 12:45 PM EST
Back to Local

KGON, Groton/new London Airport

Location: Groton, CT, United States Lat: 41.333
Local Time: 12:45 PM EST (17:45 GMT) Lon: -72.05
Time Zone: US/Eastern Elev: 9 ft

Show me the last for .
Show Decoded

2018-12-18 11:56 METAR KGON 181656Z 32014G29KT 10SM CLR 00/M13 A2990 RMK AO2 PK WND 31029/1647
                 SLP125 T00001128 =
2018-12-18 10:56 METAR KGON 181556Z 33016G28KT 10SM CLR M01/M13 A2990 RMK AO2 PK WND 34031/1459
                 SLP123 T10111128 =
2018-12-18 09:56 METAR KGON 181456Z 33023G32KT 10SM CLR M02/M13 A2991 RMK AO2 PK WND 32033/1446
                 SLP127 T10221133 51027 =
2018-12-18 08:56 METAR KGON 181356Z 33021G28KT 10SM CLR M03/M13 A2989 RMK AO2 PK WND 33030/1343
                 SLP122 T10331133 =
2018-12-18 07:56 METAR KGON 181256Z 32020G26KT 10SM CLR M04/M13 A2987 RMK AO2 PK WND 31029/1217
                 SLP114 T10391128 =
2018-12-18 06:56 METAR KGON 181156Z 32016G29KT 10SM CLR M04/M13 A2983 RMK AO2 PK WND 31041/1103
                 SLP100 T10391128 10028 21039 53034 =
2018-12-18 05:56 METAR KGON 181056Z AUTO 32028G37KT 10SM CLR M03/M13 A2979 RMK AO2 PK WND
                 32038/1025 SLP087 T10331133 =
2018-12-18 04:56 METAR KGON 180956Z AUTO 32026G35KT 10SM CLR M03/M12 A2976 RMK AO2 PK WND
                 33035/0947 SLP078 T10281117 =
2018-12-18 03:56 METAR KGON 180856Z AUTO 33024G32KT 10SM CLR M01/M08 A2973 RMK AO2 PK WND
                 31033/0806 SLP066 T10111083 51025 =
2018-12-18 02:56 METAR KGON 180756Z AUTO 30019G33KT 10SM BKN050 OVC060 01/M09 A2970 RMK AO2 PK
                 WND 29033/0750 SLP058 T00111089 =
2018-12-18 01:56 METAR KGON 180656Z AUTO 31021G34KT 10SM FEW065 02/M08 A2969 RMK AO2 PK WND
                 33034/0650 SLP053 T00171083 =
2018-12-18 00:56 METAR KGON 180556Z AUTO 31014G27KT 10SM BKN042 BKN049 OVC060 03/M06 A2965 RMK
                 AO2 PK WND 31029/0536 RAB08E22SNB22E23 SLP041 P0000 60000 T00281056 10050 20028
                 55003 =
2018-12-17 23:56 METAR KGON 180456Z AUTO 30015G20KT 10SM OVC048 04/M04 A2965 RMK AO2 SLP038
                 T00441039 400670028 =
2018-12-17 22:56 METAR KGON 180356Z AUTO 30016G21KT 10SM SCT038 BKN048 OVC055 04/M03 A2965 RMK
                 AO2 RAE0259 SLP040 P0000 T00441028 =
2018-12-17 21:56 METAR KGON 180256Z 28011KT 10SM -RA SCT044 BKN055 OVC070 04/M02 A2966 RMK AO2
                 RAB50 SLP044 P0000 60000 T00441022 51006 =
2018-12-17 20:56 METAR KGON 180156Z 28010KT 10SM OVC080 04/M03 A2966 RMK AO2 SLP043 T00441028 =
2018-12-17 19:56 METAR KGON 180056Z 29014G21KT 10SM SCT075 04/M03 A2966 RMK AO2 SLP043 T00441033
                 =
2018-12-17 18:56 METAR KGON 172356Z 29013G27KT 10SM CLR 05/M04 A2964 RMK AO2 PK WND 29028/2336
                 SLP038 60000 T00501039 10061 20050 51015 =
2018-12-17 17:56 METAR KGON 172256Z 30015G27KT 10SM FEW060 06/M04 A2963 RMK AO2 PK WND 30036/2205
                 SLP035 T00561039 =
2018-12-17 16:56 METAR KGON 172156Z 30016G28KT 10SM OVC060 06/M03 A2962 RMK AO2 PK WND 30028/2149
                 RAB13E22 SLP030 P0000 T00611028 =
2018-12-17 15:56 METAR KGON 172056Z 27007KT 10SM FEW039 BKN050 OVC060 06/00 A2960 RMK AO2 SLP023
                 T00560000 55001 =
2018-12-17 14:56 METAR KGON 171956Z 27008KT 10SM BKN060 06/00 A2959 RMK AO2 SLP019 T00560000 =
2018-12-17 14:28 METAR KGON 171928Z 27011KT 10SM SCT027 OVC033 06/01 A2959 RMK AO2 T00560006 =
2018-12-17 13:56 METAR KGON 171856Z 30008G17KT 10SM OVC026 06/01 A2960 RMK AO2 SLP021 T00560006 =
2018-12-17 13:45 METAR KGON 171845Z 30012KT 10SM BKN026 OVC031 06/01 A2959 RMK AO2 T00610006 =
2018-12-17 13:27 METAR KGON 171827Z 29009KT 10SM OVC030 06/00 A2959 RMK AO2 T00610000 =
2018-12-17 12:56 METAR KGON 171756Z 32016KT 10SM OVC025 06/00 A2960 RMK AO2 SLP023 T00560000
                 10067 20028 56023 =

Support USWX by starting your Amazon purchase here.